createdAt,value
2023-05-24T00:01:21.328Z,344
2023-05-24T00:06:22.877Z,354.66667
2023-05-24T00:11:24.561Z,354.66667
2023-05-24T00:16:26.378Z,360.21622
2023-05-24T00:21:27.895Z,349.26316
2023-05-24T00:26:29.792Z,338.87179
2023-05-24T00:31:31.591Z,329
2023-05-24T00:36:33.420Z,324.24691
2023-05-24T00:41:35.209Z,324.24691
2023-05-24T00:46:36.973Z,326.6087
2023-05-24T00:51:38.705Z,331.42138
2023-05-24T00:56:40.268Z,331.42138
2023-05-24T01:01:42.114Z,331.42138
2023-05-24T01:06:43.769Z,333.87342
2023-05-24T01:11:45.509Z,341.41935
2023-05-24T01:16:47.188Z,341.41935
2023-05-24T01:21:48.866Z,341.41935
2023-05-24T01:26:50.505Z,349.26316
2023-05-24T01:31:52.230Z,346.61438
2023-05-24T01:36:54.066Z,349.26316
2023-05-24T01:41:55.970Z,349.26316
2023-05-24T01:46:57.833Z,349.26316
2023-05-24T01:51:59.562Z,351.94702
2023-05-24T01:57:01.186Z,357.42282
2023-05-24T02:02:02.882Z,357.42282
2023-05-24T02:07:04.800Z,360.21622
2023-05-24T02:12:06.378Z,357.42282
2023-05-24T02:17:07.993Z,360.21622
2023-05-24T02:22:09.596Z,363.04762
2023-05-24T02:27:11.274Z,365.91781
2023-05-24T02:32:12.829Z,365.91781
2023-05-24T02:37:14.560Z,357.42282
2023-05-24T02:42:15.889Z,331.42138
2023-05-24T02:47:17.320Z,296
2023-05-24T02:52:18.614Z,282.46154
2023-05-24T02:57:20.419Z,275.1828
2023-05-24T03:02:22.059Z,263.17098
2023-05-24T03:07:23.666Z,259.89744
2023-05-24T03:12:25.706Z,259.89744
2023-05-24T03:17:27.525Z,264.83333
2023-05-24T03:22:29.384Z,276.97297
2023-05-24T03:27:31.251Z,288.13408
2023-05-24T03:32:32.779Z,300.06936
2023-05-24T03:37:34.159Z,302.13953
2023-05-24T03:42:35.781Z,319.60976
2023-05-24T03:47:37.356Z,344
2023-05-24T03:52:39.118Z,351.94702
2023-05-24T03:57:41.142Z,360.21622
2023-05-24T04:02:43.079Z,365.91781
2023-05-24T04:07:44.781Z,368.82759
2023-05-24T04:12:46.808Z,377.80282
2023-05-24T04:17:48.705Z,380.87943
2023-05-24T04:22:50.344Z,368.82759
2023-05-24T04:27:52.130Z,344
2023-05-24T04:32:54.118Z,333.87342
2023-05-24T04:37:55.878Z,336.35669
2023-05-24T04:42:57.758Z,317.33333
2023-05-24T04:47:59.466Z,308.49704
2023-05-24T04:53:01.212Z,302.13953
2023-05-24T04:58:03.222Z,280.61202
2023-05-24T05:03:04.997Z,282.46154
2023-05-24T05:08:07.023Z,276.97297
2023-05-24T05:13:08.948Z,275.1828
2023-05-24T05:18:10.562Z,275.1828
2023-05-24T05:23:12.171Z,278.78261
2023-05-24T05:28:13.690Z,280.61202
2023-05-24T05:33:15.122Z,284.33149
2023-05-24T05:38:16.514Z,284.33149
2023-05-24T05:43:18.092Z,288.13408
2023-05-24T05:48:19.649Z,288.13408
2023-05-24T05:53:21.102Z,296
2023-05-24T05:58:22.843Z,304.23392
2023-05-24T06:03:24.584Z,329
2023-05-24T06:08:26.024Z,336.35669
2023-05-24T06:13:27.492Z,333.87342
2023-05-24T06:18:28.846Z,349.26316
2023-05-24T06:23:30.400Z,374.76923
2023-05-24T06:28:32.216Z,365.91781
2023-05-24T06:38:35.163Z,357.42282
2023-05-24T06:43:36.959Z,351.94702
2023-05-24T06:48:38.557Z,360.21622
2023-05-24T06:53:40.018Z,354.66667
2023-05-24T06:58:41.715Z,319.60976
2023-05-24T07:03:43.634Z,321.91411
2023-05-24T07:08:45.227Z,336.35669
2023-05-24T07:13:47.244Z,338.87179
2023-05-24T07:18:48.852Z,346.61438
2023-05-24T07:29:00.906Z,357.42282
2023-05-24T07:34:02.601Z,363.04762
2023-05-24T07:39:04.072Z,365.91781
2023-05-24T07:44:05.643Z,393.63504
2023-05-24T07:49:07.118Z,417.84615
2023-05-24T07:54:08.869Z,414.22901
2023-05-24T07:59:10.231Z,429.03937
2023-05-24T08:04:11.514Z,432.88889
2023-05-24T08:09:12.812Z,436.8
2023-05-24T08:14:14.935Z,440.77419
2023-05-24T08:19:16.531Z,436.8
2023-05-24T08:24:17.912Z,475.03448
2023-05-24T08:29:19.397Z,475.03448
2023-05-24T08:34:20.851Z,484.35088
2023-05-24T08:39:22.357Z,384
2023-05-24T08:44:23.984Z,470.49573
2023-05-24T08:49:25.483Z,470.49573
2023-05-24T08:54:27.282Z,461.64706
2023-05-24T08:59:29.280Z,484.35088
2023-05-24T09:04:30.925Z,457.33333
2023-05-24T09:09:32.557Z,475.03448
2023-05-24T09:14:34.658Z,494
2023-05-24T09:19:36.238Z,494
2023-05-24T09:24:37.543Z,479.65217
2023-05-24T09:29:39.081Z,504
2023-05-24T09:34:40.986Z,514.37037
2023-05-24T09:39:42.494Z,498.95495
2023-05-24T09:44:44.249Z,514.37037
2023-05-24T09:49:48.547Z,509.13761
2023-05-24T09:54:51.123Z,509.13761
2023-05-24T09:59:52.821Z,504
2023-05-24T10:04:54.731Z,509.13761
2023-05-24T10:09:56.248Z,530.66667
2023-05-24T10:14:57.890Z,519.70093
2023-05-24T10:19:59.238Z,530.66667
2023-05-24T10:25:00.809Z,504
2023-05-24T10:30:02.315Z,519.70093
2023-05-24T10:35:03.735Z,542.05825
2023-05-24T10:40:05.312Z,566.22222
2023-05-24T10:45:07.174Z,547.92157
2023-05-24T10:50:08.645Z,620.92308
2023-05-24T10:55:10.094Z,560
2023-05-24T11:00:15.583Z,606.36559
2023-05-24T11:05:21.959Z,613.56522
2023-05-24T11:10:23.439Z,606.36559
2023-05-24T11:15:24.993Z,599.31915
2023-05-24T11:20:26.574Z,636.13483
2023-05-24T11:25:27.944Z,560
2023-05-24T11:30:29.477Z,636.13483
2023-05-24T11:35:30.957Z,0
2023-05-24T11:40:32.329Z,0
2023-05-24T11:45:33.907Z,0
2023-05-24T11:50:45.653Z,0
2023-05-24T11:55:50.434Z,0
2023-05-24T12:00:51.929Z,0
2023-05-24T12:05:53.276Z,0
2023-05-24T12:10:54.832Z,0
2023-05-24T12:15:57.022Z,0
2023-05-24T12:20:58.669Z,0
2023-05-24T12:26:00.224Z,0
2023-05-24T12:31:01.944Z,0
2023-05-24T12:36:03.390Z,0
2023-05-24T12:46:09.523Z,0
2023-05-24T12:51:11.054Z,0
2023-05-24T12:56:12.506Z,0
2023-05-24T13:01:14.057Z,0
2023-05-24T13:06:15.506Z,0
2023-05-24T13:11:16.973Z,0
2023-05-24T13:16:18.910Z,0
2023-05-24T13:21:20.481Z,0
2023-05-24T13:26:22.002Z,0
2023-05-24T13:31:23.590Z,0
2023-05-24T13:36:25.072Z,0
2023-05-24T13:41:26.648Z,0
2023-05-24T13:46:28.237Z,0
2023-05-24T13:51:30.075Z,0
2023-05-24T13:56:31.419Z,0
2023-05-24T14:01:32.967Z,0
2023-05-24T14:06:34.798Z,0
2023-05-24T14:11:36.508Z,0
2023-05-24T14:16:38.481Z,0
2023-05-24T14:21:40.483Z,0
2023-05-24T14:26:42.235Z,0
2023-05-24T14:31:44.221Z,620.92308
2023-05-24T14:36:46.017Z,644
2023-05-24T14:41:47.743Z,628.44444
2023-05-24T14:46:49.598Z,592.42105
2023-05-24T14:51:51.004Z,572.57143
2023-05-24T14:56:52.472Z,542.05825
2023-05-24T15:01:54.172Z,504
2023-05-24T15:06:55.487Z,444.81301
2023-05-24T15:11:57.071Z,384
2023-05-24T15:16:58.620Z,384
2023-05-24T15:22:00.079Z,400.2963
2023-05-24T15:27:01.979Z,400.2963
2023-05-24T15:32:03.774Z,410.66667
2023-05-24T15:37:05.619Z,417.84615
2023-05-24T15:42:07.225Z,410.66667
2023-05-24T15:47:08.669Z,410.66667
2023-05-24T15:52:10.373Z,387.16547
2023-05-24T15:57:12.064Z,384
2023-05-24T16:02:13.620Z,380.87943
2023-05-24T16:07:15.115Z,387.16547
2023-05-24T16:12:16.625Z,380.87943
2023-05-24T16:17:18.185Z,384
2023-05-24T16:22:19.690Z,384
2023-05-24T16:27:21.189Z,403.70149
2023-05-24T16:32:22.535Z,368.82759
2023-05-24T16:37:24.010Z,351.94702
2023-05-24T16:42:25.508Z,360.21622
2023-05-24T16:47:29.480Z,357.42282
2023-05-24T16:52:31.744Z,329
2023-05-24T16:57:33.225Z,333.87342
2023-05-24T17:02:34.683Z,304.23392
2023-05-24T17:07:36.245Z,290.06742
2023-05-24T17:12:37.876Z,264.83333
2023-05-24T17:17:39.383Z,261.52577
2023-05-24T17:22:40.896Z,278.78261
2023-05-24T17:27:42.497Z,331.42138
2023-05-24T17:32:43.978Z,286.22222
2023-05-24T17:37:45.307Z,276.97297
2023-05-24T17:42:46.724Z,296
2023-05-24T17:47:48.230Z,284.33149
2023-05-24T17:52:49.689Z,292.0226
2023-05-24T17:57:51.239Z,300.06936
2023-05-24T18:02:52.711Z,288.13408
2023-05-24T18:07:54.088Z,284.33149
2023-05-24T18:12:55.623Z,304.23392
2023-05-24T18:17:57.046Z,312.86228
2023-05-24T18:22:58.808Z,312.86228
2023-05-24T18:28:00.652Z,300.06936
2023-05-24T18:33:07.786Z,294
2023-05-24T18:38:10.177Z,294
2023-05-24T18:43:12.030Z,290.06742
2023-05-24T18:48:13.853Z,290.06742
2023-05-24T18:53:15.271Z,292.0226
2023-05-24T18:58:16.746Z,302.13953
2023-05-24T19:03:18.285Z,302.13953
2023-05-24T19:08:19.800Z,302.13953
2023-05-24T19:13:21.459Z,310.66667
2023-05-24T19:18:22.845Z,304.23392
2023-05-24T19:23:24.685Z,319.60976
2023-05-24T19:28:26.602Z,368.82759
2023-05-24T19:33:27.979Z,377.80282
2023-05-24T19:38:29.764Z,377.80282
2023-05-24T19:43:31.634Z,368.82759
2023-05-24T19:48:33.422Z,333.87342
2023-05-24T19:53:35.199Z,333.87342
2023-05-24T19:58:37.076Z,360.21622
2023-05-24T20:03:39.051Z,363.04762
2023-05-24T20:08:40.637Z,360.21622
2023-05-24T20:13:42.011Z,360.21622
2023-05-24T20:18:43.504Z,363.04762
2023-05-24T20:23:44.904Z,363.04762
2023-05-24T20:28:46.471Z,363.04762
2023-05-24T20:33:48.108Z,365.91781
2023-05-24T20:38:49.612Z,363.04762
2023-05-24T20:43:51.209Z,365.91781
2023-05-24T20:48:52.944Z,377.80282
2023-05-24T20:53:54.604Z,374.76923
2023-05-24T20:58:56.534Z,371.77778
2023-05-24T21:03:58.005Z,371.77778
2023-05-24T21:08:59.453Z,365.91781
2023-05-24T21:14:00.966Z,354.66667
2023-05-24T21:19:02.508Z,349.26316
2023-05-24T21:24:04.406Z,346.61438
2023-05-24T21:29:05.887Z,333.87342
2023-05-24T21:34:07.354Z,333.87342
2023-05-24T21:39:08.951Z,324.24691
2023-05-24T21:44:10.860Z,329
2023-05-24T21:49:12.651Z,329
2023-05-24T21:54:14.486Z,326.6087
2023-05-24T22:04:16.654Z,315.08434
2023-05-24T22:09:18.260Z,310.66667
2023-05-24T22:14:19.813Z,294
2023-05-24T22:19:32.300Z,288.13408
2023-05-24T22:24:41.621Z,284.33149
2023-05-24T22:29:43.386Z,288.13408
2023-05-24T22:34:45.126Z,284.33149
2023-05-24T22:39:46.738Z,275.1828
2023-05-24T22:44:48.627Z,276.97297
2023-05-24T22:49:50.220Z,278.78261
2023-05-24T22:54:51.900Z,271.65957
2023-05-24T22:59:53.862Z,273.41176
2023-05-24T23:04:55.691Z,276.97297
2023-05-24T23:09:57.533Z,280.61202
2023-05-24T23:14:59.477Z,280.61202
2023-05-24T23:20:01.342Z,286.22222
2023-05-24T23:25:03.152Z,286.22222
2023-05-24T23:30:04.789Z,292.0226
2023-05-24T23:35:06.446Z,294
2023-05-24T23:40:08.239Z,298.02299
2023-05-24T23:45:10.223Z,300.06936
2023-05-24T23:50:11.954Z,298.02299
2023-05-24T23:55:13.954Z,298.02299
